This is the latest recevied weather packets stored in our database for station/object KE7KUS-14. If no packets are shown the sender has not sent any weather packets the latest 10 day(s).
| Time | Temp. | Humidity | Pressure | Rain* | Wind** | Luminosity | Snow |
|---|---|---|---|---|---|---|---|
| 1778098331 | 15.56° C | 21% | 1025 hPa | 0 mm | - | 736 W/m² | - |
| 1778094715 | 14.44° C | 23% | 1024.7 hPa | 0 mm | - | 720 W/m² | - |
| 1778093527 | 13.89° C | 23% | 1025 hPa | 0 mm | - | 723 W/m² | - |
| 1778092291 | 13.33° C | 25% | 1025.1 hPa | 0 mm | - | 736 W/m² | - |
| 1778090474 | 13.89° C | 26% | 1025.5 hPa | 0 mm | - | 684 W/m² | - |
| 1778086901 | 12.78° C | 31% | 1025.5 hPa | 0 mm | - | 814 W/m² | - |
| 1778085083 | 12.22° C | 34% | 1025.5 hPa | 0 mm | - | 748 W/m² | - |
| 1778076706 | 11.11° C | 44% | 1024.9 hPa | 0 mm | - | 210 W/m² | - |
| 1778075536 | 10° C | 45% | 1025 hPa | 0 mm | - | 135 W/m² | - |
| 1778072483 | 7.78° C | 53% | 1024.7 hPa | 0 mm | - | 22 W/m² | - |
| 1778068325 | 8.33° C | 52% | 1024 hPa | 0 mm | - | 0 W/m² | - |
| 1778064689 | 9.44° C | 50% | 1023.5 hPa | 0 mm | - | 0 W/m² | - |
| 1778064106 | 9.44° C | 50% | 1023.4 hPa | 0 mm | - | 0 W/m² | - |
| 1778062956 | 9.44° C | 50% | 1023.6 hPa | 0 mm | - | 0 W/m² | - |
| 1778062286 | 8.89° C | 51% | 1023.5 hPa | 0 mm | - | 0 W/m² | - |
| 1778061701 | 9.44° C | 51% | 1023.4 hPa | 0 mm | - | 0 W/m² | - |
| 1778056895 | 10° C | 48% | 1023.1 hPa | 0 mm | - | 0 W/m² | - |
| 1778053903 | 11.11° C | 42% | 1023.3 hPa | 0 mm | - | 0 W/m² | - |
| 1778053317 | 11.11° C | 41% | 1023.1 hPa | 0 mm | - | 0 W/m² | - |
| 1778049095 | 12.22° C | 35% | 1023 hPa | 0 mm | - | 0 W/m² | - |
| 1778046108 | 12.78° C | 31% | 1022.7 hPa | 0 mm | - | 0 W/m² | - |
| 1778043767 | 13.33° C | 32% | 1022.5 hPa | 0 mm | - | 0 W/m² | - |
| 1778041299 | 12.78° C | 35% | 1022.3 hPa | 0 mm | - | 0 W/m² | - |
| 1778039567 | 13.33° C | 41% | 1021.9 hPa | 0 mm | - | 0 W/m² | - |
| 1778038310 | 13.33° C | 42% | 1021.9 hPa | 0 mm | - | 0 W/m² | - |
* Rain latest hour (hover to see other rain measurements)
** Current wind speed in m/s (hover to see current wind gust speed)